createdAt,value
2023-04-19T00:01:04.280Z,8.23
2023-04-19T00:03:31.708Z,8.20
2023-04-19T00:05:59.313Z,8.20
2023-04-19T00:08:26.389Z,8.14
2023-04-19T00:10:53.197Z,8.15
2023-04-19T00:17:20.085Z,8.12
2023-04-19T00:19:47.034Z,8.15
2023-04-19T00:22:13.573Z,8.19
2023-04-19T00:24:40.194Z,8.19
2023-04-19T00:27:06.682Z,8.19
2023-04-19T00:29:33.235Z,8.20
2023-04-19T00:31:59.803Z,8.21
2023-04-19T00:34:26.319Z,8.22
2023-04-19T00:36:52.880Z,8.22
2023-04-19T00:39:19.413Z,8.18
2023-04-19T00:41:45.943Z,8.14
2023-04-19T00:44:12.610Z,8.10
2023-04-19T00:46:39.540Z,8.07
2023-04-19T00:49:09.064Z,8.07
2023-04-19T00:51:36.272Z,8.06
2023-04-19T00:54:03.780Z,8.08
2023-04-19T00:56:31.371Z,8.09
2023-04-19T00:58:59.058Z,8.10
2023-04-19T01:01:25.843Z,8.12
2023-04-19T01:03:52.745Z,8.13
2023-04-19T01:06:19.419Z,8.15
2023-04-19T01:08:45.906Z,8.17
2023-04-19T01:11:12.460Z,8.18
2023-04-19T01:13:38.993Z,8.19
2023-04-19T01:16:06.958Z,8.18
2023-04-19T01:18:37.457Z,8.18
2023-04-19T01:21:04.284Z,8.19
2023-04-19T01:23:30.992Z,8.19
2023-04-19T01:25:57.735Z,8.15
2023-04-19T01:28:24.286Z,8.07
2023-04-19T01:30:56.688Z,8.02
2023-04-19T01:36:26.129Z,8.06
2023-04-19T01:38:52.757Z,8.07
2023-04-19T01:41:20.552Z,8.08
2023-04-19T01:43:47.038Z,8.03
2023-04-19T01:46:13.535Z,8.03
2023-04-19T01:48:40.058Z,8.04
2023-04-19T01:51:06.528Z,7.98
2023-04-19T01:53:33.036Z,8.00
2023-04-19T01:55:59.502Z,7.99
2023-04-19T01:58:26.005Z,8.00
2023-04-19T02:00:52.500Z,8.03
2023-04-19T02:03:19.168Z,8.05
2023-04-19T02:05:45.897Z,8.04
2023-04-19T02:08:12.404Z,8.05
2023-04-19T02:10:38.879Z,8.08
2023-04-19T02:13:05.507Z,8.06
2023-04-19T02:15:31.966Z,8.04
2023-04-19T02:18:00.348Z,7.99
2023-04-19T02:20:27.018Z,7.98
2023-04-19T02:22:53.541Z,7.99
2023-04-19T02:25:20.168Z,7.98
2023-04-19T02:27:46.721Z,7.98
2023-04-19T02:30:13.524Z,8.00
2023-04-19T02:32:40.112Z,7.99
2023-04-19T02:35:07.293Z,8.01
2023-04-19T02:37:33.794Z,8.03
2023-04-19T02:40:00.415Z,8.04
2023-04-19T02:42:26.970Z,8.00
2023-04-19T02:44:53.506Z,8.00
2023-04-19T02:47:20.006Z,8.00
2023-04-19T02:49:46.497Z,7.99
2023-04-19T02:52:12.997Z,8.02
2023-04-19T02:54:39.513Z,8.02
2023-04-19T02:57:06.096Z,8.03
2023-04-19T02:59:32.609Z,8.01
2023-04-19T03:01:59.122Z,7.98
2023-04-19T03:04:25.826Z,7.97
2023-04-19T03:06:53.449Z,7.98
2023-04-19T03:09:19.968Z,7.98
2023-04-19T03:11:46.472Z,7.97
2023-04-19T03:14:13.069Z,7.97
2023-04-19T03:16:39.747Z,8.00
2023-04-19T03:19:06.232Z,8.00
2023-04-19T03:21:32.795Z,8.01
2023-04-19T03:23:59.475Z,8.01
2023-04-19T03:26:26.003Z,8.04
2023-04-19T03:28:53.196Z,8.05
2023-04-19T03:31:19.723Z,8.04
2023-04-19T03:33:46.199Z,8.05
2023-04-19T03:36:12.728Z,8.05
2023-04-19T03:38:39.594Z,7.99
2023-04-19T03:41:06.091Z,7.93
2023-04-19T03:43:32.603Z,7.89
2023-04-19T03:45:59.175Z,7.88
2023-04-19T03:48:25.821Z,7.86
2023-04-19T03:50:52.303Z,7.85
2023-04-19T03:53:18.994Z,7.85
2023-04-19T03:55:45.921Z,7.88
2023-04-19T03:58:12.474Z,7.92
2023-04-19T04:00:39.021Z,7.92
2023-04-19T04:03:05.682Z,7.94
2023-04-19T04:05:32.404Z,7.94
2023-04-19T04:07:59.067Z,7.96
2023-04-19T04:10:25.644Z,7.96
2023-04-19T04:12:57.926Z,7.95
2023-04-19T04:15:26.762Z,7.93
2023-04-19T04:17:53.479Z,7.93
2023-04-19T04:20:20.235Z,7.94
2023-04-19T04:22:47.379Z,7.93
2023-04-19T04:25:15.935Z,7.93
2023-04-19T04:27:44.111Z,7.93
2023-04-19T04:30:14.115Z,7.94
2023-04-19T04:32:41.093Z,7.94
2023-04-19T04:35:09.395Z,7.93
2023-04-19T04:37:35.947Z,7.94
2023-04-19T04:40:06.308Z,7.95
2023-04-19T04:42:33.532Z,7.94
2023-04-19T04:45:01.667Z,7.97
2023-04-19T04:47:34.775Z,7.97
2023-04-19T04:50:02.476Z,7.98
2023-04-19T04:52:29.442Z,7.99
2023-04-19T04:54:56.117Z,8.02
2023-04-19T04:57:22.762Z,8.06
2023-04-19T04:59:49.283Z,8.05
2023-04-19T05:02:17.022Z,8.00
2023-04-19T05:04:43.828Z,8.06
2023-04-19T05:07:10.885Z,8.10
2023-04-19T05:09:37.405Z,8.14
2023-04-19T05:12:04.268Z,8.15
2023-04-19T05:14:30.886Z,8.17
2023-04-19T05:16:57.398Z,8.22
2023-04-19T05:19:23.903Z,8.26
2023-04-19T05:21:50.431Z,8.31
2023-04-19T05:24:17.215Z,8.35
2023-04-19T05:26:43.894Z,8.43
2023-04-19T05:29:10.669Z,8.52
2023-04-19T05:31:37.381Z,8.58
2023-04-19T05:34:03.958Z,8.61
2023-04-19T05:36:30.634Z,8.73
2023-04-19T05:38:57.100Z,8.85
2023-04-19T05:41:23.750Z,8.91
2023-04-19T05:43:50.220Z,8.95
2023-04-19T05:46:16.808Z,9.05
2023-04-19T05:48:43.355Z,9.13
2023-04-19T05:51:10.144Z,9.20
2023-04-19T05:53:36.682Z,9.23
2023-04-19T05:56:03.337Z,9.28
2023-04-19T05:58:29.896Z,9.30
2023-04-19T06:00:56.438Z,9.33
2023-04-19T06:03:23.128Z,9.32
2023-04-19T06:05:49.843Z,9.34
2023-04-19T06:08:17.206Z,9.37
2023-04-19T06:10:54.582Z,9.38
2023-04-19T06:13:23.551Z,9.48
2023-04-19T06:15:50.136Z,9.57
2023-04-19T06:18:19.092Z,9.68
2023-04-19T06:20:46.718Z,9.75
2023-04-19T06:23:14.826Z,9.70
2023-04-19T06:25:41.629Z,9.82
2023-04-19T06:28:08.184Z,9.93
2023-04-19T06:30:34.675Z,10.18
2023-04-19T06:33:01.225Z,10.44
2023-04-19T06:35:27.862Z,10.69
2023-04-19T06:37:54.402Z,10.75
2023-04-19T06:40:21.075Z,10.82
2023-04-19T06:42:47.553Z,10.91
2023-04-19T06:45:15.148Z,11.02
2023-04-19T06:47:41.795Z,11.25
2023-04-19T06:50:08.962Z,11.45
2023-04-19T06:52:35.552Z,11.75
2023-04-19T06:55:02.471Z,12.14
2023-04-19T06:57:28.978Z,12.56
2023-04-19T06:59:56.032Z,12.97
2023-04-19T07:02:22.731Z,13.12
2023-04-19T07:04:49.621Z,13.37
2023-04-19T07:07:16.631Z,13.50
2023-04-19T07:09:43.129Z,13.48
2023-04-19T07:12:09.622Z,13.47
2023-04-19T07:14:36.211Z,13.44
2023-04-19T07:17:04.702Z,13.32
2023-04-19T07:19:31.421Z,13.15
2023-04-19T07:21:57.915Z,12.91
2023-04-19T07:24:26.154Z,13.04
2023-04-19T07:26:52.673Z,13.05
2023-04-19T07:29:19.166Z,12.97
2023-04-19T07:31:45.809Z,13.12
2023-04-19T07:34:12.392Z,13.27
2023-04-19T07:36:39.100Z,13.55
2023-04-19T07:39:05.574Z,13.80
2023-04-19T07:41:32.604Z,13.65
2023-04-19T07:43:59.286Z,13.73
2023-04-19T07:46:25.938Z,13.70
2023-04-19T07:48:52.465Z,13.55
2023-04-19T07:51:23.811Z,13.67
2023-04-19T07:53:50.540Z,13.75
2023-04-19T07:56:17.208Z,13.74
2023-04-19T07:58:45.141Z,14.07
2023-04-19T08:01:13.290Z,14.48
2023-04-19T08:03:40.089Z,14.59
2023-04-19T08:06:08.905Z,14.69
2023-04-19T08:08:36.660Z,14.75
2023-04-19T08:11:04.878Z,14.38
2023-04-19T08:13:31.587Z,14.57
2023-04-19T08:18:27.695Z,14.94
2023-04-19T08:20:54.302Z,14.81
2023-04-19T08:23:27.544Z,14.76
2023-04-19T08:25:58.655Z,14.66
2023-04-19T08:28:25.212Z,14.50
2023-04-19T08:30:51.740Z,14.31
2023-04-19T08:33:18.339Z,14.35
2023-04-19T08:35:46.012Z,14.59
2023-04-19T08:38:12.542Z,15.01
2023-04-19T08:40:52.760Z,15.31
2023-04-19T08:43:19.942Z,15.44
2023-04-19T08:45:50.118Z,15.23
2023-04-19T08:48:18.206Z,14.96
2023-04-19T08:51:03.600Z,14.65
2023-04-19T08:53:34.300Z,14.29
2023-04-19T08:58:45.796Z,14.43
2023-04-19T09:01:31.130Z,14.59
2023-04-19T09:04:13.025Z,14.75
2023-04-19T09:06:47.323Z,14.86
2023-04-19T09:09:34.031Z,14.79
2023-04-19T09:12:16.638Z,14.79
2023-04-19T09:17:17.000Z,14.37
2023-04-19T09:19:50.733Z,14.24
2023-04-19T09:22:18.171Z,13.81
2023-04-19T09:27:19.640Z,13.63
2023-04-19T09:29:53.647Z,13.40
2023-04-19T09:32:20.390Z,13.22
2023-04-19T09:34:53.273Z,13.21
2023-04-19T09:37:34.981Z,13.26
2023-04-19T09:40:26.830Z,13.40
2023-04-19T09:48:04.843Z,13.90
2023-04-19T09:50:32.243Z,14.10
2023-04-19T09:53:01.062Z,14.27
2023-04-19T09:55:29.166Z,14.46
2023-04-19T09:57:58.155Z,14.39
2023-04-19T10:00:25.610Z,14.65
2023-04-19T10:02:58.416Z,15.08
2023-04-19T10:05:26.400Z,15.23
2023-04-19T10:07:56.735Z,15.21
2023-04-19T10:10:41.444Z,15.02
2023-04-19T10:13:20.229Z,14.39
2023-04-19T10:15:52.676Z,13.96
2023-04-19T10:18:22.376Z,13.61
2023-04-19T10:20:57.056Z,13.15
2023-04-19T10:23:23.875Z,12.75
2023-04-19T10:25:57.519Z,12.52
2023-04-19T10:28:24.097Z,12.31
2023-04-19T10:31:04.809Z,12.19
2023-04-19T10:33:36.360Z,12.04
2023-04-19T10:36:03.796Z,11.90
2023-04-19T10:38:36.759Z,11.79
2023-04-19T10:41:04.106Z,11.77
2023-04-19T10:43:33.816Z,11.75
2023-04-19T10:46:02.818Z,11.76
2023-04-19T10:48:35.354Z,11.71
2023-04-19T10:51:12.391Z,11.65
2023-04-19T10:53:47.983Z,11.68
2023-04-19T10:56:16.333Z,11.70
2023-04-19T10:59:13.365Z,11.67
2023-04-19T11:01:45.109Z,11.73
2023-04-19T11:04:30.100Z,11.72
2023-04-19T11:07:07.224Z,11.62
2023-04-19T11:09:42.154Z,11.57
2023-04-19T11:12:18.705Z,11.44
2023-04-19T11:14:47.373Z,11.40
2023-04-19T11:17:17.965Z,11.38
2023-04-19T11:19:55.764Z,11.30
2023-04-19T11:22:40.662Z,11.33
2023-04-19T11:25:20.101Z,11.36
2023-04-19T11:27:48.727Z,11.39
2023-04-19T11:30:20.117Z,11.34
2023-04-19T11:32:48.331Z,11.28
2023-04-19T11:35:18.256Z,11.26
2023-04-19T11:37:44.881Z,11.33
2023-04-19T11:40:16.421Z,11.48
2023-04-19T11:42:43.017Z,11.53
2023-04-19T11:45:26.018Z,11.63
2023-04-19T11:47:56.233Z,11.64
2023-04-19T11:50:40.301Z,11.54
2023-04-19T11:53:24.125Z,11.43
2023-04-19T11:55:54.687Z,11.25
2023-04-19T11:58:23.960Z,11.17
2023-04-19T12:00:51.036Z,11.06
2023-04-19T12:03:24.869Z,11.08
2023-04-19T12:05:57.202Z,11.07
2023-04-19T12:08:34.574Z,11.07
2023-04-19T12:11:03.097Z,11.05
2023-04-19T12:13:33.293Z,11.04
2023-04-19T12:16:01.638Z,11.02
2023-04-19T12:18:28.655Z,10.93
2023-04-19T12:20:55.309Z,10.80
2023-04-19T12:23:21.885Z,10.43
2023-04-19T12:25:49.834Z,10.13
2023-04-19T12:28:16.905Z,10.06
2023-04-19T12:30:43.845Z,10.21
2023-04-19T12:33:10.596Z,10.23
2023-04-19T12:35:38.560Z,10.17
2023-04-19T12:38:05.625Z,10.05
2023-04-19T12:40:32.394Z,10.02
2023-04-19T12:42:58.968Z,10.03
2023-04-19T12:45:25.885Z,10.12
2023-04-19T12:47:52.728Z,10.27
2023-04-19T12:50:19.390Z,10.44
2023-04-19T12:52:46.303Z,10.44
2023-04-19T12:55:13.335Z,10.49
2023-04-19T12:57:39.926Z,10.56
2023-04-19T13:00:07.419Z,10.66
2023-04-19T13:02:35.004Z,10.63
2023-04-19T13:05:02.203Z,10.61
2023-04-19T13:07:28.980Z,10.51
2023-04-19T13:09:56.681Z,10.47
2023-04-19T13:12:24.042Z,10.59
2023-04-19T13:14:52.311Z,10.59
2023-04-19T13:17:20.212Z,10.56
2023-04-19T13:19:47.548Z,10.58
2023-04-19T13:22:14.542Z,10.43
2023-04-19T13:24:41.094Z,10.39
2023-04-19T13:27:09.139Z,10.33
2023-04-19T13:29:36.125Z,10.23
2023-04-19T13:32:02.696Z,10.11
2023-04-19T13:34:29.492Z,10.13
2023-04-19T13:36:57.631Z,9.86
2023-04-19T13:39:24.458Z,9.46
2023-04-19T13:41:51.279Z,9.16
2023-04-19T13:44:18.196Z,8.80
2023-04-19T13:46:44.948Z,8.60
2023-04-19T13:49:11.572Z,8.39
2023-04-19T13:51:49.091Z,8.20
2023-04-19T13:54:20.454Z,8.27
2023-04-19T13:56:49.806Z,8.13
2023-04-19T13:59:18.125Z,8.18
2023-04-19T14:01:44.725Z,8.28
2023-04-19T14:04:11.434Z,8.32
2023-04-19T14:06:38.183Z,8.35
2023-04-19T14:09:04.739Z,8.31
2023-04-19T14:11:31.384Z,8.39
2023-04-19T14:13:58.068Z,8.43
2023-04-19T14:16:25.362Z,8.39
2023-04-19T14:18:52.490Z,8.39
2023-04-19T14:21:19.283Z,8.32
2023-04-19T14:23:45.860Z,8.36
2023-04-19T14:26:12.490Z,8.41
2023-04-19T14:28:38.966Z,8.45
2023-04-19T14:31:05.555Z,8.48
2023-04-19T14:33:32.264Z,8.57
2023-04-19T14:35:58.777Z,8.69
2023-04-19T14:38:25.541Z,8.85
2023-04-19T14:40:52.056Z,9.03
2023-04-19T14:43:18.557Z,9.13
2023-04-19T14:45:45.303Z,8.99
2023-04-19T14:48:11.843Z,8.86
2023-04-19T14:50:38.444Z,8.65
2023-04-19T14:53:04.962Z,8.45
2023-04-19T14:55:31.461Z,8.34
2023-04-19T14:57:57.946Z,8.14
2023-04-19T15:00:24.445Z,8.00
2023-04-19T15:02:51.223Z,7.92
2023-04-19T15:05:17.965Z,7.92
2023-04-19T15:07:44.622Z,7.87
2023-04-19T15:10:11.260Z,7.79
2023-04-19T15:12:37.852Z,7.74
2023-04-19T15:15:05.603Z,7.64
2023-04-19T15:17:32.158Z,7.62
2023-04-19T15:19:59.082Z,7.50
2023-04-19T15:22:25.870Z,7.47
2023-04-19T15:24:52.363Z,7.43
2023-04-19T15:27:19.013Z,7.38
2023-04-19T15:29:47.476Z,7.30
2023-04-19T15:32:14.303Z,7.21
2023-04-19T15:34:40.740Z,7.09
2023-04-19T15:37:08.147Z,7.12
2023-04-19T15:39:34.713Z,7.03
2023-04-19T15:42:02.092Z,7.03
2023-04-19T15:44:28.888Z,7.02
2023-04-19T15:46:56.162Z,7.08
2023-04-19T15:49:22.871Z,7.05
2023-04-19T15:51:49.374Z,6.98
2023-04-19T15:54:16.271Z,6.98
2023-04-19T15:56:42.847Z,6.92
2023-04-19T15:59:09.421Z,6.92
2023-04-19T16:01:36.156Z,6.89
2023-04-19T16:04:04.010Z,6.91
2023-04-19T16:06:30.702Z,6.93
2023-04-19T16:08:57.230Z,6.95
2023-04-19T16:11:23.875Z,6.85
2023-04-19T16:13:50.414Z,6.77
2023-04-19T16:16:16.888Z,6.81
2023-04-19T16:18:43.403Z,6.76
2023-04-19T16:21:10.701Z,6.71
2023-04-19T16:23:37.219Z,6.65
2023-04-19T16:26:03.795Z,6.67
2023-04-19T16:28:30.420Z,6.59
2023-04-19T16:30:57.261Z,6.57
2023-04-19T16:33:23.833Z,6.37
2023-04-19T16:35:50.337Z,6.37
2023-04-19T16:38:16.936Z,6.23
2023-04-19T16:40:46.159Z,6.10
2023-04-19T16:43:12.682Z,5.95
2023-04-19T16:45:39.891Z,5.98
2023-04-19T16:48:06.472Z,6.00
2023-04-19T16:50:33.205Z,6.06
2023-04-19T16:52:59.723Z,6.12
2023-04-19T16:55:26.221Z,6.18
2023-04-19T16:57:55.502Z,6.18
2023-04-19T17:00:22.854Z,6.24
2023-04-19T17:02:49.480Z,6.28
2023-04-19T17:05:16.258Z,6.31
2023-04-19T17:07:43.942Z,6.15
2023-04-19T17:10:10.772Z,6.13
2023-04-19T17:12:37.312Z,6.11
2023-04-19T17:15:04.381Z,6.03
2023-04-19T17:17:31.100Z,6.03
2023-04-19T17:19:57.930Z,6.10
2023-04-19T17:22:24.493Z,6.12
2023-04-19T17:24:51.116Z,6.14
2023-04-19T17:27:17.601Z,6.15
2023-04-19T17:29:44.095Z,6.15
2023-04-19T17:32:10.680Z,6.16
2023-04-19T17:34:37.285Z,6.16
2023-04-19T17:37:04.023Z,6.17
2023-04-19T17:39:30.759Z,6.15
2023-04-19T17:41:57.293Z,6.14
2023-04-19T17:44:23.866Z,6.14
2023-04-19T17:46:50.603Z,6.14
2023-04-19T17:49:18.962Z,6.14
2023-04-19T17:51:46.341Z,6.13
2023-04-19T17:54:13.268Z,6.11
2023-04-19T17:56:39.817Z,6.11
2023-04-19T17:59:06.385Z,6.06
2023-04-19T18:01:35.068Z,6.04
2023-04-19T18:04:02.014Z,6.03
2023-04-19T18:06:28.854Z,6.02
2023-04-19T18:08:55.388Z,6.02
2023-04-19T18:11:22.885Z,5.93
2023-04-19T18:13:49.476Z,5.93
2023-04-19T18:16:17.341Z,5.95
2023-04-19T18:18:44.473Z,5.97
2023-04-19T18:21:11.029Z,5.98
2023-04-19T18:23:37.643Z,5.94
2023-04-19T18:26:04.252Z,5.94
2023-04-19T18:28:31.002Z,5.95
2023-04-19T18:30:57.620Z,5.94
2023-04-19T18:33:24.186Z,5.88
2023-04-19T18:35:50.745Z,5.90
2023-04-19T18:38:17.247Z,5.93
2023-04-19T18:40:43.785Z,5.95
2023-04-19T18:43:10.680Z,5.98
2023-04-19T18:45:37.239Z,5.90
2023-04-19T18:48:04.094Z,5.86
2023-04-19T18:50:31.046Z,5.80
2023-04-19T18:52:58.416Z,5.67
2023-04-19T18:55:26.544Z,5.47
2023-04-19T18:57:53.145Z,5.40
2023-04-19T19:00:21.697Z,5.33
2023-04-19T19:02:48.384Z,5.25
2023-04-19T19:05:16.022Z,5.25
2023-04-19T19:07:43.107Z,5.19
2023-04-19T19:10:19.090Z,5.15
2023-04-19T19:12:49.570Z,5.16
2023-04-19T19:15:16.974Z,5.11
2023-04-19T19:17:48.528Z,5.10
2023-04-19T19:20:16.538Z,5.09
2023-04-19T19:22:43.060Z,5.08
2023-04-19T19:25:11.564Z,5.07
2023-04-19T19:27:38.801Z,5.03
2023-04-19T19:30:07.792Z,5.01
2023-04-19T19:32:34.739Z,4.98
2023-04-19T19:35:06.430Z,4.97
2023-04-19T19:37:36.207Z,4.96
2023-04-19T19:40:06.529Z,4.94
2023-04-19T19:42:36.405Z,4.95
2023-04-19T19:45:04.097Z,4.95
2023-04-19T19:47:33.007Z,4.93
2023-04-19T19:52:30.165Z,4.95
2023-04-19T19:54:56.712Z,4.98
2023-04-19T19:59:56.360Z,4.90
2023-04-19T20:02:24.344Z,4.91
2023-04-19T20:04:51.485Z,4.93
2023-04-19T20:07:37.266Z,4.95
2023-04-19T20:10:11.782Z,4.99
2023-04-19T20:12:40.817Z,5.02
2023-04-19T20:15:08.037Z,5.06
2023-04-19T20:17:34.674Z,5.08
2023-04-19T20:20:05.570Z,5.08
2023-04-19T20:22:32.073Z,5.08
2023-04-19T20:24:59.746Z,5.07
2023-04-19T20:27:26.255Z,5.06
2023-04-19T20:29:52.832Z,5.07
2023-04-19T20:32:19.329Z,5.07
2023-04-19T20:34:46.004Z,5.08
2023-04-19T20:37:12.767Z,5.07
2023-04-19T20:39:39.318Z,5.04
2023-04-19T20:42:07.232Z,5.04
2023-04-19T20:44:34.124Z,5.04
2023-04-19T20:47:00.691Z,5.07
2023-04-19T20:49:27.250Z,5.10
2023-04-19T20:51:53.745Z,5.11
2023-04-19T20:54:20.743Z,5.12
2023-04-19T20:56:48.087Z,5.09
2023-04-19T20:59:14.882Z,5.08
2023-04-19T21:01:42.705Z,5.05
2023-04-19T21:04:09.370Z,5.05
2023-04-19T21:06:36.080Z,5.03
2023-04-19T21:09:02.587Z,5.00
2023-04-19T21:11:29.106Z,4.99
2023-04-19T21:13:55.650Z,4.98
2023-04-19T21:16:22.166Z,4.97
2023-04-19T21:18:48.716Z,4.99
2023-04-19T21:21:15.253Z,5.00
2023-04-19T21:23:41.740Z,5.00
2023-04-19T21:26:09.602Z,5.00
2023-04-19T21:28:36.109Z,5.00
2023-04-19T21:31:02.909Z,4.99
2023-04-19T21:33:29.585Z,4.96
2023-04-19T21:35:56.131Z,4.97
2023-04-19T21:38:22.601Z,4.96
2023-04-19T21:40:49.494Z,4.95
2023-04-19T21:43:17.458Z,4.92
2023-04-19T21:45:46.503Z,4.90
2023-04-19T21:48:13.049Z,4.87
2023-04-19T21:50:39.773Z,4.85
2023-04-19T21:53:06.439Z,4.84
2023-04-19T21:55:33.009Z,4.85
2023-04-19T21:58:01.849Z,4.83
2023-04-19T22:00:28.598Z,4.83
2023-04-19T22:02:55.545Z,4.81
2023-04-19T22:05:22.143Z,4.80
2023-04-19T22:07:49.238Z,4.77
2023-04-19T22:10:16.512Z,4.77
2023-04-19T22:12:55.106Z,4.78
2023-04-19T22:15:25.843Z,4.80
2023-04-19T22:17:52.487Z,4.82
2023-04-19T22:20:19.053Z,4.82
2023-04-19T22:22:45.626Z,4.81
2023-04-19T22:25:12.151Z,4.78
2023-04-19T22:27:38.704Z,4.77
2023-04-19T22:30:06.476Z,4.75
2023-04-19T22:32:33.100Z,4.74
2023-04-19T22:34:59.656Z,4.72
2023-04-19T22:37:26.172Z,4.71
2023-04-19T22:39:52.725Z,4.70
2023-04-19T22:42:19.261Z,4.65
2023-04-19T22:44:45.784Z,4.65
2023-04-19T22:47:13.135Z,4.66
2023-04-19T22:49:43.052Z,4.68
2023-04-19T22:52:11.497Z,4.70
2023-04-19T22:54:38.073Z,4.70
2023-04-19T22:57:04.565Z,4.68
2023-04-19T22:59:31.078Z,4.64
2023-04-19T23:01:57.626Z,4.65
2023-04-19T23:04:24.206Z,4.63
2023-04-19T23:06:50.780Z,4.62
2023-04-19T23:09:18.292Z,4.61
2023-04-19T23:11:46.337Z,4.62
2023-04-19T23:14:13.102Z,4.64
2023-04-19T23:16:39.596Z,4.65
2023-04-19T23:19:07.508Z,4.63
2023-04-19T23:21:34.845Z,4.64
2023-04-19T23:24:01.352Z,4.67
2023-04-19T23:26:28.111Z,4.70
2023-04-19T23:28:54.653Z,4.74
2023-04-19T23:31:21.334Z,4.78
2023-04-19T23:33:48.465Z,4.81
2023-04-19T23:36:15.442Z,4.85
2023-04-19T23:38:41.951Z,4.87
2023-04-19T23:41:11.377Z,4.89
2023-04-19T23:43:38.308Z,4.91
2023-04-19T23:46:04.931Z,4.92
2023-04-19T23:48:31.456Z,4.91
2023-04-19T23:50:57.943Z,4.89
2023-04-19T23:53:24.510Z,4.84
2023-04-19T23:55:51.058Z,4.83
2023-04-19T23:58:17.550Z,4.78
